M I D A S
Marine Information and Data Acquisition System
Tripno 1995 of the Zeeleeuw from 2010-10-15 06:34:42 to 2010-10-15 12:35:42
Back to CruiseResearch ActivitiesStationsMapUnderway DataData graphs

EquipmentUnitsComment
TimeDGPSUTC
LatitudeDGPSDM.mWGS84
LongitudeDGPSDM.mWGS84
HeadingGyrodeg 
SOGDGPSknotsSpeed over ground
COGDGPSdegCourse over ground
DepthEcho soundermeters200 kHz
Missing or incorrect values are displayed as -999
Navigation data collected by the RV Zeeleeuw from 2010-10-15 05:58:29 to 2010-10-15 13:40:07
                                                                                    Next 1000 lines
Time Latitude Longitude Heading SOG COG Depth
2010-10-15 05:58:39 51°13.663 2°55.96 125.2 0.1 347 -999
2010-10-15 05:58:44 51°13.664 2°55.96 125.2 -999 15 -999
2010-10-15 05:58:49 51°13.664 2°55.96 125.2 0.1 143 -999
2010-10-15 05:58:54 51°13.664 2°55.96 125.2 -999 338 -999
2010-10-15 05:58:59 51°13.664 2°55.96 125.2 -999 202 -999
2010-10-15 05:59:04 51°13.664 2°55.96 125.2 0.1 155 -999
2010-10-15 05:59:09 51°13.664 2°55.96 125.3 0.1 174 -999
2010-10-15 05:59:14 51°13.664 2°55.96 125.3 0.1 195 -999
2010-10-15 05:59:19 51°13.664 2°55.96 125.3 -999 168 -999
2010-10-15 05:59:24 51°13.664 2°55.96 125.3 0.2 173 -999
2010-10-15 05:59:29 51°13.664 2°55.96 125.3 0.1 182 -999
2010-10-15 05:59:34 51°13.664 2°55.96 125.3 -999 256 -999
2010-10-15 05:59:39 51°13.664 2°55.96 125.3 -999 45 -999
2010-10-15 05:59:44 51°13.665 2°55.96 125.3 0.1 332 -999
2010-10-15 05:59:49 51°13.664 2°55.96 125.3 0.1 346 -999
2010-10-15 05:59:54 51°13.664 2°55.96 125.3 0.1 177 -999
2010-10-15 05:59:59 51°13.664 2°55.96 125.3 -999 174 -999
2010-10-15 06:00:04 51°13.664 2°55.959 125.3 0.1 339 -999
2010-10-15 06:00:09 51°13.664 2°55.96 125.3 0.2 170 -999
2010-10-15 06:00:14 51°13.664 2°55.96 125.3 0.2 171 -999
2010-10-15 06:00:19 51°13.664 2°55.96 125.3 -999 352 -999
2010-10-15 06:00:24 51°13.664 2°55.96 125.3 0.1 347 -999
2010-10-15 06:00:29 51°13.664 2°55.96 125.4 0.1 174 -999
2010-10-15 06:00:34 51°13.664 2°55.96 125.4 0.1 169 -999
2010-10-15 06:00:39 51°13.664 2°55.96 125.4 -999 130 -999
2010-10-15 06:00:44 51°13.664 2°55.96 125.5 0.1 354 -999
2010-10-15 06:00:49 51°13.664 2°55.96 125.5 0.1 337 -999
2010-10-15 06:00:54 51°13.664 2°55.96 125.5 0.1 330 -999
2010-10-15 06:00:59 51°13.664 2°55.96 125.5 0.1 329 -999
2010-10-15 06:01:04 51°13.664 2°55.96 125.5 -999 181 -999
2010-10-15 06:01:09 51°13.664 2°55.96 125.5 -999 140 -999
2010-10-15 06:01:14 51°13.664 2°55.961 125.4 -999 354 -999
2010-10-15 06:01:19 51°13.664 2°55.961 125.4 0.1 345 -999
2010-10-15 06:01:24 51°13.664 2°55.961 125.4 0.1 345 -999
2010-10-15 06:01:29 51°13.663 2°55.96 125.3 0.1 177 -999
2010-10-15 06:01:34 51°13.664 2°55.96 125.3 -999 192 -999
2010-10-15 06:01:39 51°13.664 2°55.96 125.3 -999 60 -999
2010-10-15 06:01:44 51°13.663 2°55.96 125.3 -999 124 -999
2010-10-15 06:01:49 51°13.663 2°55.96 125.3 0.2 163 -999
2010-10-15 06:01:54 51°13.664 2°55.96 125.2 -999 23 -999
2010-10-15 06:01:59 51°13.664 2°55.96 125.2 -999 342 -999
2010-10-15 06:02:04 51°13.663 2°55.96 125.1 0.1 347 -999
2010-10-15 06:02:09 51°13.664 2°55.96 125 0.1 312 -999
2010-10-15 06:02:14 51°13.663 2°55.96 124.9 -999 44 -999
2010-10-15 06:02:19 51°13.663 2°55.96 124.9 0.1 159 -999
2010-10-15 06:02:24 51°13.664 2°55.961 124.9 -999 78 -999
2010-10-15 06:02:29 51°13.664 2°55.961 124.9 0.1 343 -999
2010-10-15 06:02:34 51°13.664 2°55.961 124.9 -999 342 -999
2010-10-15 06:02:39 51°13.664 2°55.961 124.8 -999 1 -999
2010-10-15 06:02:44 51°13.664 2°55.961 124.8 0.1 6 -999
2010-10-15 06:02:49 51°13.664 2°55.962 124.8 -999 332 -999
2010-10-15 06:02:54 51°13.664 2°55.961 124.7 -999 357 -999
2010-10-15 06:02:59 51°13.663 2°55.96 124.7 -999 204 -999
2010-10-15 06:03:04 51°13.664 2°55.96 124.7 -999 110 -999
2010-10-15 06:03:09 51°13.664 2°55.96 124.7 -999 277 -999
2010-10-15 06:03:14 51°13.664 2°55.96 124.7 0.1 354 -999
2010-10-15 06:03:19 51°13.663 2°55.96 124.7 -999 188 -999
2010-10-15 06:03:24 51°13.664 2°55.959 124.7 -999 326 -999
2010-10-15 06:03:29 51°13.663 2°55.96 124.7 0.1 163 -999
2010-10-15 06:03:34 51°13.663 2°55.96 124.7 0.1 161 -999
2010-10-15 06:03:39 51°13.663 2°55.96 124.6 0.1 132 -999
2010-10-15 06:03:44 51°13.664 2°55.96 124.6 -999 354 -999
2010-10-15 06:03:49 51°13.663 2°55.96 124.6 -999 214 -999
2010-10-15 06:03:54 51°13.663 2°55.96 124.6 -999 145 -999
2010-10-15 06:03:59 51°13.663 2°55.96 124.6 0.1 173 -999
2010-10-15 06:04:04 51°13.663 2°55.96 124.5 -999 166 -999
2010-10-15 06:04:09 51°13.663 2°55.96 124.5 -999 182 -999
2010-10-15 06:04:14 51°13.663 2°55.961 124.5 0.1 172 -999
2010-10-15 06:04:19 51°13.663 2°55.961 124.5 -999 41 -999
2010-10-15 06:04:24 51°13.663 2°55.96 124.5 -999 6 -999
2010-10-15 06:04:29 51°13.663 2°55.96 124.5 -999 205 -999
2010-10-15 06:04:34 51°13.663 2°55.96 124.5 -999 11 -999
2010-10-15 06:04:39 51°13.663 2°55.96 124.5 0.1 348 -999
2010-10-15 06:04:44 51°13.663 2°55.96 124.5 0.1 346 -999
2010-10-15 06:04:49 51°13.663 2°55.96 124.5 0.1 322 -999
2010-10-15 06:04:54 51°13.663 2°55.96 124.5 -999 228 -999
2010-10-15 06:04:59 51°13.663 2°55.96 124.5 0.1 148 -999
2010-10-15 06:05:04 51°13.663 2°55.96 124.5 -999 150 -999
2010-10-15 06:05:09 51°13.663 2°55.96 124.5 -999 324 -999
2010-10-15 06:05:13 51°13.663 2°55.96 124.6 0.1 325 -999
2010-10-15 06:05:19 51°13.663 2°55.961 124.7 0.1 158 -999
2010-10-15 06:05:23 51°13.663 2°55.961 124.7 -999 53 -999
2010-10-15 06:05:28 51°13.663 2°55.961 124.8 0.1 348 -999
2010-10-15 06:05:33 51°13.663 2°55.961 124.8 -999 351 -999
2010-10-15 06:05:38 51°13.663 2°55.961 124.8 -999 318 -999
2010-10-15 06:05:44 51°13.663 2°55.961 124.8 0.1 306 -999
2010-10-15 06:05:49 51°13.663 2°55.961 124.8 -999 190 -999
2010-10-15 06:05:54 51°13.663 2°55.961 124.8 -999 157 -999
2010-10-15 06:05:59 51°13.663 2°55.961 124.8 -999 313 -999
2010-10-15 06:06:04 51°13.663 2°55.961 124.8 -999 301 -999
2010-10-15 06:06:09 51°13.663 2°55.961 124.8 -999 173 -999
2010-10-15 06:06:14 51°13.663 2°55.96 124.8 0.1 351 -999
2010-10-15 06:06:19 51°13.663 2°55.96 124.8 -999 329 -999
2010-10-15 06:06:24 51°13.663 2°55.96 124.8 0.1 340 -999
2010-10-15 06:06:29 51°13.663 2°55.96 124.8 0.2 330 -999
2010-10-15 06:06:34 51°13.663 2°55.96 124.8 0.1 334 -999
2010-10-15 06:06:39 51°13.663 2°55.96 124.8 0.1 335 -999
2010-10-15 06:06:44 51°13.663 2°55.961 124.8 0.1 337 -999
2010-10-15 06:06:49 51°13.663 2°55.96 124.8 0.1 156 -999
2010-10-15 06:06:54 51°13.663 2°55.96 124.8 0.1 155 -999
2010-10-15 06:06:59 51°13.663 2°55.96 124.7 -999 351 -999
2010-10-15 06:07:04 51°13.663 2°55.959 124.7 0.1 346 -999
2010-10-15 06:07:09 51°13.663 2°55.96 124.7 -999 316 -999
2010-10-15 06:07:14 51°13.663 2°55.96 124.6 -999 99 -999
2010-10-15 06:07:19 51°13.663 2°55.959 124.6 0.1 23 -999
2010-10-15 06:07:24 51°13.663 2°55.959 124.6 0.1 300 -999
2010-10-15 06:07:29 51°13.663 2°55.959 124.6 -999 180 -999
2010-10-15 06:07:34 51°13.663 2°55.959 124.5 0.1 333 -999
2010-10-15 06:07:39 51°13.663 2°55.959 124.5 -999 327 -999
2010-10-15 06:07:44 51°13.663 2°55.96 124.5 0.1 161 -999
2010-10-15 06:07:49 51°13.663 2°55.96 124.5 -999 274 -999
2010-10-15 06:07:54 51°13.663 2°55.96 124.5 -999 358 -999
2010-10-15 06:07:59 51°13.663 2°55.96 124.5 -999 297 -999
2010-10-15 06:08:04 51°13.663 2°55.96 124.5 -999 167 -999
2010-10-15 06:08:09 51°13.663 2°55.96 124.5 0.1 156 -999
2010-10-15 06:08:14 51°13.663 2°55.959 124.5 -999 347 -999
2010-10-15 06:08:19 51°13.663 2°55.959 124.5 -999 311 -999
2010-10-15 06:08:24 51°13.663 2°55.959 124.5 -999 190 -999
2010-10-15 06:08:29 51°13.663 2°55.959 124.5 0.1 323 -999
2010-10-15 06:08:34 51°13.663 2°55.959 124.5 0.1 335 -999
2010-10-15 06:08:39 51°13.663 2°55.96 124.5 -999 153 -999
2010-10-15 06:08:44 51°13.663 2°55.959 124.5 -999 358 -999
2010-10-15 06:08:49 51°13.663 2°55.959 124.5 0.1 327 -999
2010-10-15 06:08:54 51°13.663 2°55.96 124.5 -999 183 -999
2010-10-15 06:08:59 51°13.663 2°55.96 124.5 -999 150 -999
2010-10-15 06:09:04 51°13.662 2°55.96 124.5 -999 191 -999
2010-10-15 06:09:09 51°13.662 2°55.96 124.5 0.1 166 -999
2010-10-15 06:09:14 51°13.662 2°55.96 124.5 0.1 170 -999
2010-10-15 06:09:19 51°13.662 2°55.959 124.5 -999 148 -999
2010-10-15 06:09:24 51°13.663 2°55.959 124.4 0.1 346 -999
2010-10-15 06:09:29 51°13.663 2°55.959 124.4 -999 295 -999
2010-10-15 06:09:34 51°13.663 2°55.959 124.4 -999 212 -999
2010-10-15 06:09:39 51°13.663 2°55.96 124.4 -999 231 -999
2010-10-15 06:09:44 51°13.663 2°55.96 124.4 -999 18 -999
2010-10-15 06:09:49 51°13.663 2°55.96 124.4 -999 351 -999
2010-10-15 06:09:54 51°13.663 2°55.96 124.4 -999 82 -999
2010-10-15 06:09:59 51°13.663 2°55.961 124.4 0.1 39 -999
2010-10-15 06:10:04 51°13.663 2°55.961 124.4 0.1 351 -999
2010-10-15 06:10:09 51°13.662 2°55.961 124.4 -999 244 -999
2010-10-15 06:10:14 51°13.663 2°55.961 124.4 0.1 85 -999
2010-10-15 06:10:19 51°13.662 2°55.961 124.4 -999 146 -999
2010-10-15 06:10:24 51°13.663 2°55.961 124.4 -999 308 -999
2010-10-15 06:10:29 51°13.663 2°55.961 124.4 0.1 328 -999
2010-10-15 06:10:34 51°13.662 2°55.961 124.4 0.1 194 -999
2010-10-15 06:10:39 51°13.662 2°55.961 124.4 0.1 147 -999
2010-10-15 06:10:44 51°13.662 2°55.961 124.4 0.1 172 -999
2010-10-15 06:10:49 51°13.662 2°55.961 124.4 0.1 139 -999
2010-10-15 06:10:54 51°13.662 2°55.961 124.4 -999 169 -999
2010-10-15 06:10:59 51°13.662 2°55.961 124.4 -999 181 -999
2010-10-15 06:11:04 51°13.662 2°55.961 124.5 -999 176 -999
2010-10-15 06:11:08 51°13.662 2°55.96 124.5 -999 183 -999
2010-10-15 06:11:14 51°13.662 2°55.961 124.6 -999 203 -999
2010-10-15 06:11:19 51°13.662 2°55.961 124.6 -999 305 -999
2010-10-15 06:11:23 51°13.662 2°55.961 124.6 -999 340 -999
2010-10-15 06:11:29 51°13.662 2°55.961 124.6 -999 337 -999
2010-10-15 06:11:34 51°13.662 2°55.961 124.6 0.1 177 -999
2010-10-15 06:11:39 51°13.662 2°55.961 124.6 0.1 23 -999
2010-10-15 06:11:44 51°13.662 2°55.961 124.6 -999 342 -999
2010-10-15 06:11:49 51°13.662 2°55.962 124.6 -999 325 -999
2010-10-15 06:11:54 51°13.662 2°55.962 124.5 -999 10 -999
2010-10-15 06:11:59 51°13.662 2°55.962 124.5 0.1 358 -999
2010-10-15 06:12:04 51°13.662 2°55.962 124.5 0.1 349 -999
2010-10-15 06:12:09 51°13.662 2°55.962 124.5 -999 251 -999
2010-10-15 06:12:14 51°13.662 2°55.962 124.5 0.1 158 -999
2010-10-15 06:12:19 51°13.662 2°55.962 124.5 0.1 151 -999
2010-10-15 06:12:24 51°13.662 2°55.962 124.5 0.1 154 -999
2010-10-15 06:12:29 51°13.662 2°55.962 124.5 0.1 340 -999
2010-10-15 06:12:34 51°13.662 2°55.962 124.5 0.1 334 -999
2010-10-15 06:12:39 51°13.662 2°55.962 124.5 -999 299 -999
2010-10-15 06:12:44 51°13.662 2°55.962 124.5 -999 20 -999
2010-10-15 06:12:49 51°13.662 2°55.962 124.5 -999 347 -999
2010-10-15 06:12:54 51°13.662 2°55.962 124.5 -999 15 -999
2010-10-15 06:12:59 51°13.662 2°55.962 124.5 -999 335 -999
2010-10-15 06:13:04 51°13.662 2°55.962 124.5 0.1 338 -999
2010-10-15 06:13:09 51°13.662 2°55.962 124.5 -999 331 -999
2010-10-15 06:13:13 51°13.662 2°55.962 124.5 -999 172 -999
2010-10-15 06:13:18 51°13.662 2°55.962 124.4 -999 198 -999
2010-10-15 06:13:24 51°13.662 2°55.962 124.3 -999 306 -999
2010-10-15 06:13:29 51°13.662 2°55.962 124.2 -999 177 -999
2010-10-15 06:13:34 51°13.662 2°55.962 124.2 0.1 165 -999
2010-10-15 06:13:39 51°13.662 2°55.962 124.2 -999 203 -999
2010-10-15 06:13:44 51°13.662 2°55.962 124.1 -999 163 -999
2010-10-15 06:13:49 51°13.662 2°55.961 124 -999 213 -999
2010-10-15 06:13:54 51°13.662 2°55.961 123.9 -999 16 -999
2010-10-15 06:13:59 51°13.662 2°55.961 123.8 -999 332 -999
2010-10-15 06:14:04 51°13.662 2°55.961 123.8 0.1 341 -999
2010-10-15 06:14:09 51°13.662 2°55.962 123.7 -999 324 -999
2010-10-15 06:14:14 51°13.662 2°55.961 123.7 -999 328 -999
2010-10-15 06:14:19 51°13.662 2°55.961 123.7 -999 356 -999
2010-10-15 06:14:24 51°13.662 2°55.961 123.7 -999 193 -999
2010-10-15 06:14:29 51°13.662 2°55.961 123.6 -999 166 -999
2010-10-15 06:14:34 51°13.662 2°55.961 123.6 0.1 189 -999
2010-10-15 06:14:39 51°13.662 2°55.961 123.6 -999 156 -999
2010-10-15 06:14:44 51°13.662 2°55.961 123.6 -999 239 -999
2010-10-15 06:14:49 51°13.662 2°55.961 123.6 -999 168 -999
2010-10-15 06:14:54 51°13.662 2°55.961 123.7 -999 355 -999
2010-10-15 06:14:59 51°13.662 2°55.961 123.7 -999 333 -999
2010-10-15 06:15:04 51°13.662 2°55.961 123.7 0.1 341 -999
2010-10-15 06:15:09 51°13.662 2°55.961 123.7 0.1 162 -999
2010-10-15 06:15:14 51°13.662 2°55.961 123.8 0.1 167 -999
2010-10-15 06:15:19 51°13.662 2°55.961 123.8 0.1 169 -999
2010-10-15 06:15:24 51°13.662 2°55.961 123.8 -999 184 -999
2010-10-15 06:15:29 51°13.662 2°55.961 123.8 -999 172 -999
2010-10-15 06:15:34 51°13.662 2°55.961 123.8 -999 192 -999
2010-10-15 06:15:39 51°13.662 2°55.961 123.7 -999 157 -999
2010-10-15 06:15:44 51°13.662 2°55.961 123.7 -999 153 -999
2010-10-15 06:15:49 51°13.662 2°55.96 123.7 -999 289 -999
2010-10-15 06:15:54 51°13.662 2°55.96 123.7 -999 155 -999
2010-10-15 06:15:59 51°13.662 2°55.96 123.8 -999 324 -999
2010-10-15 06:16:04 51°13.662 2°55.96 123.9 -999 10 -999
2010-10-15 06:16:09 51°13.662 2°55.96 123.9 -999 39 -999
2010-10-15 06:16:14 51°13.662 2°55.96 124.1 -999 167 -999
2010-10-15 06:16:19 51°13.662 2°55.96 124.2 -999 285 -999
2010-10-15 06:16:24 51°13.662 2°55.96 124.3 -999 232 -999
2010-10-15 06:16:29 51°13.662 2°55.96 124.4 -999 181 -999
2010-10-15 06:16:34 51°13.662 2°55.96 124.5 -999 11 -999
2010-10-15 06:16:39 51°13.662 2°55.96 124.5 0.1 200 -999
2010-10-15 06:16:44 51°13.662 2°55.96 124.4 -999 246 -999
2010-10-15 06:16:49 51°13.662 2°55.96 124.3 -999 225 -999
2010-10-15 06:16:54 51°13.662 2°55.96 124.2 -999 231 -999
2010-10-15 06:16:59 51°13.662 2°55.96 123.9 0.1 211 -999
2010-10-15 06:17:04 51°13.662 2°55.96 123.6 0.1 5 -999
2010-10-15 06:17:09 51°13.662 2°55.96 123.4 -999 302 -999
2010-10-15 06:17:14 51°13.662 2°55.96 123.2 0.1 205 -999
2010-10-15 06:17:18 51°13.662 2°55.96 123.1 0.1 205 -999
2010-10-15 06:17:24 51°13.662 2°55.96 123.1 -999 26 -999
2010-10-15 06:17:29 51°13.662 2°55.96 123.1 0.1 3 -999
2010-10-15 06:17:34 51°13.662 2°55.96 123.1 0.1 13 -999
2010-10-15 06:17:39 51°13.662 2°55.96 123.2 0.1 12 -999
2010-10-15 06:17:44 51°13.662 2°55.96 123.2 -999 22 -999
2010-10-15 06:17:49 51°13.662 2°55.96 123.4 -999 331 -999
2010-10-15 06:17:54 51°13.662 2°55.96 123.4 -999 193 -999
2010-10-15 06:18:01 51°13.662 2°55.96 123.5 -999 173 -999
2010-10-15 06:18:06 51°13.662 2°55.96 123.5 0.1 203 -999
2010-10-15 06:18:11 51°13.662 2°55.96 123.5 0.1 187 -999
2010-10-15 06:18:16 51°13.662 2°55.96 123.6 -999 14 -999
2010-10-15 06:18:21 51°13.662 2°55.96 123.8 -999 24 9.9
2010-10-15 06:18:26 51°13.662 2°55.96 123.8 0.1 21 9.9
2010-10-15 06:18:30 51°13.662 2°55.96 123.8 -999 189 9.9
2010-10-15 06:18:35 51°13.662 2°55.961 123.8 0.1 22 9.9
2010-10-15 06:18:40 51°13.662 2°55.961 123.8 -999 353 9.8
2010-10-15 06:18:45 51°13.661 2°55.961 123.9 0.1 197 9.9
2010-10-15 06:18:50 51°13.661 2°55.961 123.9 -999 180 9.9
2010-10-15 06:18:55 51°13.661 2°55.961 123.9 -999 76 9.8
2010-10-15 06:19:00 51°13.662 2°55.961 123.9 -999 267 9.9
2010-10-15 06:19:05 51°13.662 2°55.961 123.9 0.1 10 9.8
2010-10-15 06:19:10 51°13.662 2°55.961 123.9 -999 -999 9.9
2010-10-15 06:19:14 51°13.662 2°55.961 123.9 -999 253 9.9
2010-10-15 06:19:19 51°13.662 2°55.961 123.8 -999 194 9.9
2010-10-15 06:19:24 51°13.662 2°55.961 123.8 -999 229 9.9
2010-10-15 06:19:29 51°13.662 2°55.961 123.8 -999 191 9.9
2010-10-15 06:19:34 51°13.662 2°55.961 123.8 -999 34 9.9
2010-10-15 06:19:38 51°13.662 2°55.961 123.8 0.1 17 9.9
2010-10-15 06:19:43 51°13.662 2°55.961 123.9 0.1 14 9.9
2010-10-15 06:19:48 51°13.662 2°55.961 124 -999 180 10
2010-10-15 06:19:53 51°13.662 2°55.961 124.1 -999 10 9.9
2010-10-15 06:19:58 51°13.662 2°55.961 124.2 -999 193 9.9
2010-10-15 06:20:03 51°13.662 2°55.961 124.3 0.1 18 10
2010-10-15 06:20:07 51°13.662 2°55.961 124.4 0.1 11 9.8
2010-10-15 06:20:12 51°13.662 2°55.961 124.4 0.1 196 9.9
2010-10-15 06:20:17 51°13.662 2°55.961 124.4 0.1 197 9.8
2010-10-15 06:20:22 51°13.662 2°55.961 124.5 0.1 202 9.9
2010-10-15 06:20:27 51°13.662 2°55.961 124.4 0.1 200 9.9
2010-10-15 06:20:32 51°13.662 2°55.961 124.4 0.2 35 9.9
2010-10-15 06:20:37 51°13.662 2°55.961 124.3 0.1 8 10
2010-10-15 06:20:42 51°13.662 2°55.961 124.2 -999 303 9.9
2010-10-15 06:20:47 51°13.662 2°55.961 124.1 -999 98 9.8
2010-10-15 06:20:52 51°13.662 2°55.961 124 0.1 25 9.8
2010-10-15 06:20:57 51°13.662 2°55.961 123.8 0.1 9 9.9
2010-10-15 06:21:02 51°13.662 2°55.961 123.6 0.1 2 9.9
2010-10-15 06:21:07 51°13.662 2°55.961 123.5 0.1 18 -999
2010-10-15 06:21:12 51°13.662 2°55.961 123.4 -999 116 10.2
2010-10-15 06:21:17 51°13.662 2°55.961 123.4 -999 50 9.8
2010-10-15 06:21:22 51°13.662 2°55.961 123.4 -999 9 9.8
2010-10-15 06:21:27 51°13.662 2°55.961 123.4 -999 178 9.8
2010-10-15 06:21:32 51°13.662 2°55.961 123.4 0.1 193 9.8
2010-10-15 06:21:38 51°13.662 2°55.961 123.4 0.1 202 9.8
2010-10-15 06:21:42 51°13.662 2°55.961 123.4 -999 215 10.1
2010-10-15 06:21:46 51°13.662 2°55.961 123.4 -999 9 10.2
2010-10-15 06:21:52 51°13.662 2°55.961 123.4 0.1 14 9.8
2010-10-15 06:21:57 51°13.662 2°55.961 123.4 -999 20 9.9
2010-10-15 06:22:02 51°13.662 2°55.961 123.4 -999 77 9.8
2010-10-15 06:22:07 51°13.662 2°55.961 123.4 0.1 212 10.1
2010-10-15 06:22:12 51°13.662 2°55.961 123.3 0.1 201 9.9
2010-10-15 06:22:17 51°13.662 2°55.961 123.3 -999 -999 9.9
2010-10-15 06:22:22 51°13.662 2°55.961 123.3 0.1 244 10.1
2010-10-15 06:22:27 51°13.662 2°55.961 123.3 0.1 316 9.8
2010-10-15 06:22:32 51°13.663 2°55.961 123.3 0.1 11 9.8
2010-10-15 06:22:37 51°13.663 2°55.962 123.3 0.1 28 9.8
2010-10-15 06:22:42 51°13.662 2°55.961 123.3 -999 114 10.2
2010-10-15 06:22:47 51°13.662 2°55.961 123.3 -999 65 10.2
2010-10-15 06:22:52 51°13.662 2°55.961 123.4 -999 346 10.1
2010-10-15 06:22:57 51°13.662 2°55.961 123.5 -999 222 10.1
2010-10-15 06:23:02 51°13.662 2°55.961 123.5 -999 50 9.9
2010-10-15 06:23:06 51°13.663 2°55.961 123.5 0.1 8 10.2
2010-10-15 06:23:12 51°13.663 2°55.961 123.5 -999 346 9.8
2010-10-15 06:23:17 51°13.663 2°55.961 123.6 -999 345 9.8
2010-10-15 06:23:22 51°13.663 2°55.961 123.6 -999 296 10.1
2010-10-15 06:23:27 51°13.663 2°55.961 123.7 0.1 345 9.8
2010-10-15 06:23:32 51°13.663 2°55.961 123.8 0.1 44 9.8
2010-10-15 06:23:37 51°13.663 2°55.961 123.8 0.1 55 9.8
2010-10-15 06:23:42 51°13.663 2°55.961 123.8 0.1 54 9.8
2010-10-15 06:23:46 51°13.663 2°55.961 123.8 -999 330 9.8
2010-10-15 06:23:52 51°13.663 2°55.961 123.8 0.2 12 9.8
2010-10-15 06:23:57 51°13.663 2°55.961 123.8 0.2 16 9.9
2010-10-15 06:24:02 51°13.663 2°55.961 123.8 0.1 35 9.8
2010-10-15 06:24:07 51°13.663 2°55.96 123.8 -999 57 9.8
2010-10-15 06:24:12 51°13.663 2°55.961 123.8 0.1 27 9.8
2010-10-15 06:24:17 51°13.663 2°55.961 123.9 0.1 33 10.1
2010-10-15 06:24:22 51°13.663 2°55.961 123.9 -999 11 9.8
2010-10-15 06:24:27 51°13.663 2°55.96 124.1 0.1 8 9.8
2010-10-15 06:24:32 51°13.663 2°55.96 124.2 -999 319 9.9
2010-10-15 06:24:37 51°13.663 2°55.96 124.4 -999 218 10.1
2010-10-15 06:24:42 51°13.662 2°55.96 124.6 -999 179 10.2
2010-10-15 06:24:47 51°13.663 2°55.961 124.9 0.1 36 9.9
2010-10-15 06:24:52 51°13.663 2°55.961 125.2 -999 144 9.8
2010-10-15 06:24:58 51°13.662 2°55.961 125.5 0.1 177 -999
2010-10-15 06:25:02 51°13.662 2°55.961 125.7 -999 -999 9.9
2010-10-15 06:25:07 51°13.662 2°55.961 126 0.1 41 9.9
2010-10-15 06:25:12 51°13.662 2°55.961 126.2 0.1 18 9.8
2010-10-15 06:25:17 51°13.663 2°55.961 126.3 0.1 33 9.8
2010-10-15 06:25:22 51°13.662 2°55.961 126.3 0.1 50 9.8
2010-10-15 06:25:27 51°13.662 2°55.961 126.3 0.1 105 9.8
2010-10-15 06:25:32 51°13.662 2°55.961 126.3 -999 31 9.8
2010-10-15 06:25:38 51°13.662 2°55.961 126.2 0.1 5 9.9
2010-10-15 06:25:42 51°13.662 2°55.961 126.1 -999 204 9.9
2010-10-15 06:25:47 51°13.662 2°55.96 126.1 0.1 224 10
2010-10-15 06:25:52 51°13.662 2°55.96 126.2 0.1 329 9.8
2010-10-15 06:25:57 51°13.662 2°55.96 126.2 0.1 222 9.8
2010-10-15 06:26:02 51°13.662 2°55.961 126.2 0.2 166 9.9
2010-10-15 06:26:07 51°13.662 2°55.96 126.4 0.1 169 9.9
2010-10-15 06:26:12 51°13.663 2°55.96 126.4 0.1 20 9.8
2010-10-15 06:26:18 51°13.662 2°55.96 126.4 0.1 7 9.8
2010-10-15 06:26:22 51°13.662 2°55.96 126.4 0.1 235 9.8
2010-10-15 06:26:26 51°13.662 2°55.96 126.4 0.1 238 9.9
2010-10-15 06:26:32 51°13.662 2°55.96 126.4 0.1 158 9.8
2010-10-15 06:26:37 51°13.663 2°55.96 126.4 0.2 10 9.8
2010-10-15 06:26:42 51°13.662 2°55.96 126.4 0.1 8 9.9
2010-10-15 06:26:47 51°13.662 2°55.96 126.4 0.1 331 9.8
2010-10-15 06:26:52 51°13.662 2°55.96 126.4 0.1 10 9.9
2010-10-15 06:26:57 51°13.662 2°55.96 126.4 0.1 16 9.8
2010-10-15 06:27:02 51°13.662 2°55.96 126.4 0.1 36 9.9
2010-10-15 06:27:07 51°13.663 2°55.96 126.4 0.1 18 9.8
2010-10-15 06:27:12 51°13.662 2°55.96 126.4 -999 335 9.7
2010-10-15 06:27:17 51°13.662 2°55.96 126.4 -999 193 9.8
2010-10-15 06:27:22 51°13.662 2°55.96 126.4 -999 164 9.8
2010-10-15 06:27:27 51°13.662 2°55.96 126.4 0.1 144 9.8
2010-10-15 06:27:32 51°13.662 2°55.96 126.4 0.1 146 9.8
2010-10-15 06:27:38 51°13.662 2°55.96 126.4 0.1 33 9.8
2010-10-15 06:27:42 51°13.662 2°55.96 126.4 0.1 24 9.8
2010-10-15 06:27:46 51°13.662 2°55.96 126.4 0.1 14 9.8
2010-10-15 06:27:52 51°13.662 2°55.961 126.4 0.1 8 9.8
2010-10-15 06:27:57 51°13.662 2°55.96 126.4 -999 273 9.8
2010-10-15 06:28:02 51°13.662 2°55.96 126.4 -999 319 9.8
2010-10-15 06:28:07 51°13.662 2°55.96 126.4 -999 159 9.8
2010-10-15 06:28:12 51°13.662 2°55.961 126.4 -999 90 9.8
2010-10-15 06:28:18 51°13.662 2°55.96 126.4 -999 179 9.8
2010-10-15 06:28:22 51°13.662 2°55.96 126.4 -999 316 9.8
2010-10-15 06:28:27 51°13.662 2°55.96 126.4 0.1 200 9.8
2010-10-15 06:28:32 51°13.662 2°55.96 126.4 0.1 223 9.8
2010-10-15 06:28:37 51°13.662 2°55.961 126.4 -999 292 9.8
2010-10-15 06:28:42 51°13.662 2°55.961 126.4 -999 236 9.8
2010-10-15 06:28:47 51°13.662 2°55.961 126.4 0.1 209 9.9
2010-10-15 06:28:52 51°13.662 2°55.961 126.4 -999 17 9.8
2010-10-15 06:28:57 51°13.663 2°55.961 126.4 0.1 9 9.9
2010-10-15 06:29:02 51°13.662 2°55.961 126.4 -999 44 9.9
2010-10-15 06:29:07 51°13.662 2°55.96 126.4 0.1 183 9.8
2010-10-15 06:29:12 51°13.663 2°55.959 126.4 0.1 170 9.9
2010-10-15 06:29:17 51°13.664 2°55.959 126.4 0.1 15 9.8
2010-10-15 06:29:22 51°13.664 2°55.959 126.4 0.1 353 9.8
2010-10-15 06:29:27 51°13.664 2°55.959 126.4 -999 253 9.8
2010-10-15 06:29:32 51°13.663 2°55.959 126.4 0.1 173 9.8
2010-10-15 06:29:37 51°13.664 2°55.959 126.4 0.1 173 9.8
2010-10-15 06:29:42 51°13.664 2°55.959 126.4 0.1 189 9.8
2010-10-15 06:29:47 51°13.663 2°55.959 126.4 0.1 201 9.8
2010-10-15 06:29:52 51°13.664 2°55.959 126.4 0.1 157 9.8
2010-10-15 06:29:57 51°13.664 2°55.959 126.4 0.1 181 9.8
2010-10-15 06:30:02 51°13.664 2°55.959 126.4 -999 245 9.9
2010-10-15 06:30:06 51°13.664 2°55.958 126.4 0.1 236 9.9
2010-10-15 06:30:12 51°13.664 2°55.958 126.4 0.1 190 9.8
2010-10-15 06:30:17 51°13.664 2°55.958 126.4 0.2 174 9.8
2010-10-15 06:30:22 51°13.664 2°55.958 126.4 0.1 173 9.8
2010-10-15 06:30:27 51°13.664 2°55.958 126.4 0.1 351 9.8
2010-10-15 06:30:32 51°13.664 2°55.958 126.4 0.1 28 9.8
2010-10-15 06:30:37 51°13.664 2°55.958 126.4 -999 312 9.8
2010-10-15 06:30:42 51°13.665 2°55.958 126.4 -999 339 9.8
2010-10-15 06:30:47 51°13.665 2°55.958 126.4 0.1 7 9.8
2010-10-15 06:30:52 51°13.664 2°55.958 126.4 -999 347 9.8
2010-10-15 06:30:57 51°13.664 2°55.957 126.4 -999 351 9.8
2010-10-15 06:31:02 51°13.664 2°55.957 126.4 -999 17 9.8
2010-10-15 06:31:07 51°13.664 2°55.957 126.4 -999 218 9.7
2010-10-15 06:31:12 51°13.663 2°55.957 126.4 0.2 192 9.7
2010-10-15 06:31:17 51°13.664 2°55.958 126.4 0.1 196 9.8
2010-10-15 06:31:22 51°13.664 2°55.958 126.4 -999 357 9.8
2010-10-15 06:31:27 51°13.664 2°55.957 126.4 -999 235 9.8
2010-10-15 06:31:32 51°13.664 2°55.957 126.4 -999 146 9.8
2010-10-15 06:31:37 51°13.664 2°55.957 126.4 -999 16 9.8
2010-10-15 06:31:42 51°13.664 2°55.957 126.4 -999 323 9.8
2010-10-15 06:31:47 51°13.664 2°55.957 126.4 -999 267 9.8
2010-10-15 06:31:52 51°13.664 2°55.957 126.4 0.1 356 9.7
2010-10-15 06:31:57 51°13.664 2°55.957 126.4 0.1 358 9.7
2010-10-15 06:32:02 51°13.664 2°55.957 126.4 0.1 195 9.7
2010-10-15 06:32:07 51°13.664 2°55.957 126.5 -999 299 9.8
2010-10-15 06:32:12 51°13.664 2°55.957 126.6 0.1 323 9.7
2010-10-15 06:32:17 51°13.664 2°55.957 126.8 0.1 337 9.7
2010-10-15 06:32:22 51°13.664 2°55.957 126.9 0.1 12 9.8
2010-10-15 06:32:26 51°13.664 2°55.957 127 0.1 38 9.8
2010-10-15 06:32:32 51°13.664 2°55.958 127 0.1 62 9.8
2010-10-15 06:32:37 51°13.664 2°55.958 127 -999 91 9.7
2010-10-15 06:32:42 51°13.664 2°55.958 127 -999 48 9.8
2010-10-15 06:32:47 51°13.664 2°55.958 126.6 -999 55 9.8
2010-10-15 06:32:52 51°13.664 2°55.958 126 0.1 33 9.8
2010-10-15 06:32:57 51°13.664 2°55.958 125.6 0.1 115 9.9
2010-10-15 06:33:02 51°13.663 2°55.958 124.8 0.1 168 9.7
2010-10-15 06:33:07 51°13.664 2°55.958 124 -999 178 9.7
2010-10-15 06:33:12 51°13.664 2°55.958 123.5 0.1 206 9.8
2010-10-15 06:33:17 51°13.664 2°55.958 123.1 0.1 187 9.9
2010-10-15 06:33:22 51°13.664 2°55.958 122.3 0.2 6 9.7
2010-10-15 06:33:27 51°13.664 2°55.958 121.6 -999 264 9.7
2010-10-15 06:33:32 51°13.663 2°55.958 120.6 0.1 192 9.7
2010-10-15 06:33:37 51°13.663 2°55.959 119.7 0.1 189 9.7
2010-10-15 06:33:42 51°13.663 2°55.959 118.8 0.1 244 9.7
2010-10-15 06:33:47 51°13.663 2°55.959 117.7 0.1 195 9.7
2010-10-15 06:33:53 51°13.663 2°55.958 116.7 0.1 193 9.7
2010-10-15 06:33:57 51°13.663 2°55.958 115.6 0.1 189 9.7
2010-10-15 06:34:02 51°13.663 2°55.958 114.6 0.1 197 9.7
2010-10-15 06:34:07 51°13.662 2°55.959 113.5 0.1 189 9.9
2010-10-15 06:34:12 51°13.662 2°55.958 112.5 0.1 171 9.7
2010-10-15 06:34:17 51°13.663 2°55.958 111.6 0.1 201 9.7
2010-10-15 06:34:22 51°13.663 2°55.958 110.5 0.1 217 9.7
2010-10-15 06:34:27 51°13.664 2°55.957 110.1 0.1 268 9.7
2010-10-15 06:34:32 51°13.664 2°55.956 109.7 0.3 294 9.8
2010-10-15 06:34:37 51°13.664 2°55.956 109.3 0.4 282 9.8
2010-10-15 06:34:42 51°13.664 2°55.954 109 0.5 275 9.8
2010-10-15 06:34:47 51°13.665 2°55.953 108.6 0.8 294 9.9
2010-10-15 06:34:52 51°13.665 2°55.951 108.2 1.1 292 9.8
2010-10-15 06:34:57 51°13.665 2°55.948 108 1.4 293 9.7
2010-10-15 06:35:02 51°13.665 2°55.945 108 1.7 291 9.5
2010-10-15 06:35:07 51°13.666 2°55.941 108.2 2.1 292 4.9
2010-10-15 06:35:13 51°13.668 2°55.935 108.8 2.4 292 -999
2010-10-15 06:35:19 51°13.67 2°55.928 109 2.7 294 -999
2010-10-15 06:35:24 51°13.672 2°55.921 109 3.1 293 -999
2010-10-15 06:35:30 51°13.674 2°55.913 108.8 3.3 292 -999
2010-10-15 06:35:36 51°13.677 2°55.904 108.2 3.6 293 -999
2010-10-15 06:35:41 51°13.679 2°55.896 107.4 3.8 291 -999
2010-10-15 06:35:46 51°13.68 2°55.888 106.2 3.9 291 -999
2010-10-15 06:35:51 51°13.682 2°55.879 105.3 4.1 288 -999
2010-10-15 06:35:56 51°13.683 2°55.871 104.5 4.2 287 -999
2010-10-15 06:36:01 51°13.685 2°55.861 103.5 4.4 285 -999
2010-10-15 06:36:06 51°13.686 2°55.852 102.2 4.4 284 -999
2010-10-15 06:36:11 51°13.688 2°55.842 100.8 4.4 282 -999
2010-10-15 06:36:16 51°13.69 2°55.833 99.2 4.5 285 -999
2010-10-15 06:36:21 51°13.691 2°55.823 97.5 4.5 279 -999
2010-10-15 06:36:26 51°13.692 2°55.813 95.8 4.4 279 -999
2010-10-15 06:36:30 51°13.693 2°55.805 93.8 4.5 278 -999
2010-10-15 06:36:36 51°13.694 2°55.794 91.7 4.5 276 -999
2010-10-15 06:36:41 51°13.695 2°55.784 89.4 4.3 276 -999
2010-10-15 06:36:46 51°13.695 2°55.775 87.2 4.3 275 -999
2010-10-15 06:36:50 51°13.694 2°55.768 84.8 4.1 272 -999
2010-10-15 06:36:56 51°13.693 2°55.758 82.8 3.9 269 -999
2010-10-15 06:37:01 51°13.693 2°55.75 79.8 3.7 265 -999
2010-10-15 06:37:06 51°13.693 2°55.743 77.5 3.5 265 -999
2010-10-15 06:37:10 51°13.692 2°55.737 75.6 3.1 263 -999
2010-10-15 06:37:15 51°13.692 2°55.732 73.4 2.3 262 14.8
2010-10-15 06:37:21 51°13.692 2°55.729 70.9 1.4 268 15
2010-10-15 06:37:26 51°13.692 2°55.728 67.7 0.7 276 15.1
2010-10-15 06:37:30 51°13.692 2°55.727 63.9 0.4 298 14.9
2010-10-15 06:37:35 51°13.693 2°55.727 58.1 0.3 334 14.5
2010-10-15 06:37:40 51°13.694 2°55.727 52.4 0.4 358 14.4
2010-10-15 06:37:45 51°13.694 2°55.727 46.5 0.6 15 14.5
2010-10-15 06:37:50 51°13.695 2°55.728 42.9 0.7 19 14.5
2010-10-15 06:37:54 51°13.696 2°55.728 38.3 0.9 20 14.6
2010-10-15 06:37:59 51°13.697 2°55.729 34.2 1 16 14.9
2010-10-15 06:38:04 51°13.699 2°55.73 29.4 1.4 23 15.1
2010-10-15 06:38:09 51°13.701 2°55.731 25.8 1.6 12 15
2010-10-15 06:38:14 51°13.703 2°55.732 19.9 1.6 13 14.6
2010-10-15 06:38:18 51°13.706 2°55.733 14.7 2.1 9 14.7
2010-10-15 06:38:23 51°13.71 2°55.733 9.5 2.6 4 14.3
2010-10-15 06:38:28 51°13.714 2°55.732 0.1 2.8 354 14.3
2010-10-15 06:38:33 51°13.717 2°55.731 354.3 2.8 349 14.4
2010-10-15 06:38:38 51°13.722 2°55.729 347.7 2.9 343 14.2
2010-10-15 06:38:42 51°13.726 2°55.727 341.2 3.5 340 14.1
2010-10-15 06:38:47 51°13.731 2°55.724 335 3.8 335 14
2010-10-15 06:38:53 51°13.736 2°55.719 330.4 3.9 332 13.7
2010-10-15 06:38:58 51°13.742 2°55.713 328.6 4.4 329 13.9
2010-10-15 06:39:02 51°13.746 2°55.709 328.3 4.8 330 13.7
2010-10-15 06:39:07 51°13.752 2°55.702 328.7 5.3 328 13.1
2010-10-15 06:39:12 51°13.76 2°55.696 328.3 5.9 329 12.7
2010-10-15 06:39:18 51°13.769 2°55.687 328.2 6.2 327 13
2010-10-15 06:39:22 51°13.776 2°55.681 328.7 6.5 330 13.4
2010-10-15 06:39:27 51°13.784 2°55.674 329.2 7 330 13.5
2010-10-15 06:39:32 51°13.793 2°55.666 329.4 7.3 331 13.5
2010-10-15 06:39:37 51°13.802 2°55.658 330.3 7.6 331 13.7
2010-10-15 06:39:42 51°13.811 2°55.65 331.5 7.8 334 13.6
2010-10-15 06:39:47 51°13.821 2°55.642 332.5 8 334 13.6
2010-10-15 06:39:52 51°13.831 2°55.633 332.9 8.3 336 13.5
2010-10-15 06:39:57 51°13.842 2°55.626 333.9 8.4 335 13.4
2010-10-15 06:40:02 51°13.853 2°55.618 334.6 8.6 336 13.3
2010-10-15 06:40:07 51°13.864 2°55.61 334.8 8.7 336 13.3
2010-10-15 06:40:12 51°13.875 2°55.601 334.2 8.9 335 12.9
2010-10-15 06:40:17 51°13.887 2°55.592 334.2 9.2 335 13.2
2010-10-15 06:40:22 51°13.898 2°55.583 333.7 9.3 333 12.9
2010-10-15 06:40:27 51°13.91 2°55.573 333.3 9.5 333 12.3
2010-10-15 06:40:33 51°13.925 2°55.562 333.6 9.7 334 12.9
2010-10-15 06:40:37 51°13.934 2°55.554 334 9.7 334 12.7
2010-10-15 06:40:42 51°13.947 2°55.546 334.1 9.9 335 12.7
2010-10-15 06:40:47 51°13.959 2°55.536 333.9 10 333 13
2010-10-15 06:40:52 51°13.972 2°55.526 334 10.1 336 13.2
2010-10-15 06:40:57 51°13.984 2°55.516 334.1 10.1 334 12.8
2010-10-15 06:41:02 51°13.997 2°55.507 334.4 10.1 336 12.2
2010-10-15 06:41:07 51°14.009 2°55.498 334.7 10 335 12.5
2010-10-15 06:41:13 51°14.026 2°55.487 334.7 10.3 336 12
2010-10-15 06:41:17 51°14.036 2°55.479 334.8 10.2 336 11.7
2010-10-15 06:41:22 51°14.048 2°55.47 334.8 10.1 335 11.9
2010-10-15 06:41:27 51°14.061 2°55.46 335 10.2 336 11.7
2010-10-15 06:41:32 51°14.074 2°55.45 334.7 10.3 334 11.8
2010-10-15 06:41:38 51°14.089 2°55.439 334 10.2 335 11.9
2010-10-15 06:41:42 51°14.099 2°55.431 334.1 10.1 335 11.9
2010-10-15 06:41:47 51°14.111 2°55.422 334.2 9.9 335 12
2010-10-15 06:41:52 51°14.123 2°55.412 333.4 9.8 334 11.8
2010-10-15 06:41:58 51°14.137 2°55.4 333 9.5 333 12.4
2010-10-15 06:42:02 51°14.146 2°55.393 332.4 9.4 333 12.2
2010-10-15 06:42:06 51°14.155 2°55.385 331.7 9.3 332 12.3
2010-10-15 06:42:12 51°14.169 2°55.373 331.4 9.1 332 12.3
2010-10-15 06:42:17 51°14.179 2°55.363 330.7 8.9 329 12.3
2010-10-15 06:42:22 51°14.19 2°55.353 329.7 8.9 330 12.2
2010-10-15 06:42:27 51°14.201 2°55.343 328.7 8.9 329 12.5
2010-10-15 06:42:32 51°14.211 2°55.333 328.2 8.8 329 12.3
2010-10-15 06:42:37 51°14.222 2°55.323 328.2 8.9 329 12.2
2010-10-15 06:42:42 51°14.232 2°55.313 328.2 8.9 329 12.2
2010-10-15 06:42:46 51°14.241 2°55.305 328.4 8.8 330 12.3
2010-10-15 06:42:52 51°14.253 2°55.293 328.6 8.7 330 12.1
2010-10-15 06:42:57 51°14.263 2°55.283 328.4 8.7 329 12
2010-10-15 06:43:02 51°14.274 2°55.273 328.9 8.8 331 12.2
2010-10-15 06:43:06 51°14.282 2°55.265 328.9 8.7 329 12.1
2010-10-15 06:43:12 51°14.295 2°55.253 328.8 8.7 329 11.9
2010-10-15 06:43:17 51°14.305 2°55.243 328.3 8.7 329 11.8
2010-10-15 06:43:22 51°14.315 2°55.233 327.7 8.6 328 12.2
2010-10-15 06:43:27 51°14.325 2°55.222 326.9 8.6 327 11.8
2010-10-15 06:43:32 51°14.335 2°55.212 327.6 8.7 329 11.9
2010-10-15 06:43:38 51°14.347 2°55.2 327.4 8.6 327 11.8
2010-10-15 06:43:42 51°14.355 2°55.192 327.1 8.7 328 11.8
2010-10-15 06:43:47 51°14.366 2°55.182 327.1 8.8 328 11.7
2010-10-15 06:43:52 51°14.376 2°55.172 327.8 8.9 330 11.7
2010-10-15 06:43:58 51°14.389 2°55.16 328.3 8.9 330 11.8
2010-10-15 06:44:02 51°14.397 2°55.152 328.8 8.8 330 11.8
2010-10-15 06:44:07 51°14.407 2°55.142 328.5 8.7 328 11.8
2010-10-15 06:44:12 51°14.417 2°55.132 328.3 8.7 330 12.1
2010-10-15 06:44:17 51°14.428 2°55.122 328.2 8.8 328 12.1
2010-10-15 06:44:22 51°14.438 2°55.112 327.9 8.8 329 12.1
2010-10-15 06:44:26 51°14.446 2°55.104 327.6 8.9 328 12.2
2010-10-15 06:44:32 51°14.459 2°55.091 327.4 9 328 13
2010-10-15 06:44:37 51°14.469 2°55.08 328.2 9.1 329 13.1
2010-10-15 06:44:42 51°14.48 2°55.069 328.2 9.3 327 12.6
2010-10-15 06:44:47 51°14.491 2°55.058 327.4 9.4 328 12.7
2010-10-15 06:44:52 51°14.503 2°55.046 327.4 9.7 328 12.7
2010-10-15 06:44:57 51°14.514 2°55.035 328.1 9.8 330 12.4
2010-10-15 06:45:02 51°14.526 2°55.025 329 9.9 330 12.9
2010-10-15 06:45:06 51°14.536 2°55.016 329.5 10.3 332 13
2010-10-15 06:45:12 51°14.552 2°55.003 330.2 10.5 333 13.3
2010-10-15 06:45:17 51°14.565 2°54.992 331.3 10.8 333 13.4
2010-10-15 06:45:22 51°14.579 2°54.981 330.8 10.9 332 13
2010-10-15 06:45:27 51°14.592 2°54.969 328 11.3 332 12.9
2010-10-15 06:45:32 51°14.607 2°54.957 327.4 11.6 333 13.3
2010-10-15 06:45:38 51°14.624 2°54.944 328.3 11.7 334 13.2
2010-10-15 06:45:42 51°14.635 2°54.934 327.7 11.7 331 12.5
2010-10-15 06:45:47 51°14.649 2°54.922 327.3 11.7 333 12.5
2010-10-15 06:45:52 51°14.664 2°54.909 326.5 11.9 331 13.1
2010-10-15 06:45:58 51°14.681 2°54.893 325.9 12.1 330 13.7
2010-10-15 06:46:02 51°14.693 2°54.882 325.6 12 329 13.6
2010-10-15 06:46:07 51°14.707 2°54.869 326 12.3 330 13.1
2010-10-15 06:46:12 51°14.723 2°54.855 325.8 12.6 331 13.4
2010-10-15 06:46:17 51°14.738 2°54.841 326.5 12.5 330 13.1
2010-10-15 06:46:22 51°14.753 2°54.827 326 12.6 330 12.9
2010-10-15 06:46:27 51°14.769 2°54.814 326 12.7 331 12.9
2010-10-15 06:46:32 51°14.785 2°54.8 326.3 12.9 330 12.7
2010-10-15 06:46:37 51°14.801 2°54.785 325.6 13.1 330 12.6
2010-10-15 06:46:42 51°14.817 2°54.772 326.1 13 332 12.2
2010-10-15 06:46:47 51°14.832 2°54.757 325.3 12.9 330 11.6
2010-10-15 06:46:52 51°14.848 2°54.744 325 13 334 11.5
2010-10-15 06:46:57 51°14.865 2°54.735 331 13.2 342 11.4
2010-10-15 06:47:02 51°14.883 2°54.727 336.8 13.1 344 11.5
2010-10-15 06:47:07 51°14.901 2°54.72 339.8 13.2 345 11.2
2010-10-15 06:47:12 51°14.918 2°54.711 339.7 13.3 343 11.3
2010-10-15 06:47:17 51°14.936 2°54.702 338.3 13.3 342 11.1
2010-10-15 06:47:22 51°14.953 2°54.693 336.5 13.2 341 11.3
2010-10-15 06:47:27 51°14.97 2°54.682 335.3 13.3 339 10.9
2010-10-15 06:47:32 51°14.987 2°54.672 334.5 13.3 339 10.6
2010-10-15 06:47:37 51°15.004 2°54.661 334 13.3 338 10.8
2010-10-15 06:47:42 51°15.021 2°54.65 333.2 13.2 337 10.7
2010-10-15 06:47:46 51°15.034 2°54.64 332.3 13 335 10.3
2010-10-15 06:47:52 51°15.053 2°54.623 328.7 12.7 328 10
2010-10-15 06:47:57 51°15.067 2°54.607 323.1 12.8 324 10
2010-10-15 06:48:02 51°15.081 2°54.589 318.5 12.8 321 10.2
2010-10-15 06:48:07 51°15.094 2°54.571 315.1 12.5 319 9.8
2010-10-15 06:48:12 51°15.107 2°54.552 313 12.7 318 10.5
2010-10-15 06:48:17 51°15.121 2°54.534 313.6 12.7 321 10.2
2010-10-15 06:48:22 51°15.135 2°54.516 315.6 12.8 322 10.3
2010-10-15 06:48:27 51°15.148 2°54.499 317 12.8 322 10.2
2010-10-15 06:48:32 51°15.163 2°54.482 317.4 12.9 322 10.4
2010-10-15 06:48:37 51°15.177 2°54.463 317.4 13 321 10.3
2010-10-15 06:48:42 51°15.191 2°54.445 316.8 13 320 10.3
2010-10-15 06:48:47 51°15.204 2°54.426 316.4 13 320 10.5
2010-10-15 06:48:52 51°15.219 2°54.408 315.8 13.2 321 10.4
2010-10-15 06:48:57 51°15.232 2°54.389 316 13.2 320 10.6
2010-10-15 06:49:02 51°15.246 2°54.37 316.4 13.2 320 10.7
2010-10-15 06:49:07 51°15.261 2°54.352 316.5 13.2 321 10.7
2010-10-15 06:49:12 51°15.275 2°54.334 316.8 13 322 10.5
2010-10-15 06:49:17 51°15.289 2°54.316 317.1 13 321 10.4
2010-10-15 06:49:22 51°15.303 2°54.298 317.2 13 321 11.1
2010-10-15 06:49:27 51°15.317 2°54.28 317 13 321 10.9
2010-10-15 06:49:32 51°15.331 2°54.261 316.1 13.1 321 10.9
2010-10-15 06:49:37 51°15.345 2°54.243 315.3 13.1 320 11
2010-10-15 06:49:42 51°15.359 2°54.224 315 13.1 320 10.9
2010-10-15 06:49:46 51°15.37 2°54.209 314.7 13.1 319 11.2
2010-10-15 06:49:52 51°15.387 2°54.186 314.5 13.2 319 11.3
2010-10-15 06:49:57 51°15.4 2°54.167 314.5 13.1 319 11.2
2010-10-15 06:50:02 51°15.413 2°54.148 314.5 13 319 11.7
2010-10-15 06:50:07 51°15.427 2°54.129 314.7 13 318 11.5
2010-10-15 06:50:12 51°15.44 2°54.11 314.1 12.9 318 11.3
2010-10-15 06:50:17 51°15.453 2°54.09 312.9 12.9 316 11.8
2010-10-15 06:50:22 51°15.467 2°54.071 312.2 13.1 317 11.5
2010-10-15 06:50:27 51°15.479 2°54.051 311.7 12.9 315 11.5
2010-10-15 06:50:32 51°15.492 2°54.03 310.9 12.9 316 11.6
2010-10-15 06:50:37 51°15.505 2°54.01 310.8 13 315 11.6
2010-10-15 06:50:42 51°15.518 2°53.991 310.6 13 316 11.5
2010-10-15 06:50:47 51°15.53 2°53.97 310.3 12.9 315 12.3
2010-10-15 06:50:52 51°15.543 2°53.95 310.4 12.9 315 12.1
2010-10-15 06:50:57 51°15.556 2°53.93 310.3 13 316 12.3
2010-10-15 06:51:02 51°15.569 2°53.91 310.7 13 316 12.2
2010-10-15 06:51:07 51°15.582 2°53.89 310.8 13 316 12.2
2010-10-15 06:51:12 51°15.594 2°53.869 310.8 13 315 12.6
2010-10-15 06:51:17 51°15.607 2°53.849 310.7 13 315 12.2
2010-10-15 06:51:22 51°15.62 2°53.829 310.5 12.9 315 12
2010-10-15 06:51:27 51°15.633 2°53.808 310.3 12.9 315 12.3
2010-10-15 06:51:32 51°15.646 2°53.789 310.3 12.9 315 12.6
2010-10-15 06:51:37 51°15.658 2°53.768 310.5 12.9 314 12.4
2010-10-15 06:51:42 51°15.671 2°53.748 310.2 12.9 315 12.5
2010-10-15 06:51:47 51°15.684 2°53.728 310.5 13 315 12.3
2010-10-15 06:51:52 51°15.697 2°53.708 310.7 13 315 12.6
2010-10-15 06:51:57 51°15.709 2°53.687 310.3 13 315 12.5
2010-10-15 06:52:02 51°15.722 2°53.667 310.2 12.8 315 12.5
2010-10-15 06:52:07 51°15.734 2°53.647 309.9 12.7 314 12.5
2010-10-15 06:52:12 51°15.747 2°53.627 309.9 12.7 314 12.4
2010-10-15 06:52:17 51°15.759 2°53.606 309.7 12.8 314 12.7
2010-10-15 06:52:22 51°15.772 2°53.587 310 12.8 316 12.9
2010-10-15 06:52:26 51°15.782 2°53.571 310.9 12.9 315 13.1
2010-10-15 06:52:32 51°15.799 2°53.549 313.4 12.8 321 12.4
2010-10-15 06:52:37 51°15.812 2°53.53 314.1 12.8 319 12.8
2010-10-15 06:52:42 51°15.827 2°53.514 317.3 13 325 13.1
2010-10-15 06:52:47 51°15.841 2°53.496 318.9 13 323 12.8
2010-10-15 06:52:52 51°15.856 2°53.481 320.2 12.9 327 12.6
2010-10-15 06:52:57 51°15.871 2°53.465 321.3 13.1 326 13
2010-10-15 06:53:02 51°15.887 2°53.449 322.7 13.2 329 12.5
2010-10-15 06:53:07 51°15.902 2°53.434 323.7 13.2 328 12.8
2010-10-15 06:53:12 51°15.918 2°53.42 324.5 13.2 330 12.9
2010-10-15 06:53:17 51°15.933 2°53.405 325.2 13.2 329 13.1
2010-10-15 06:53:22 51°15.95 2°53.391 325.9 13.3 331 12.8
2010-10-15 06:53:27 51°15.966 2°53.376 326 13.3 330 12.8
2010-10-15 06:53:32 51°15.982 2°53.362 326.6 13.3 331 13.2
2010-10-15 06:53:37 51°15.997 2°53.347 326.9 13.2 331 13.3
2010-10-15 06:53:42 51°16.014 2°53.333 327 13.2 331 13.3
2010-10-15 06:53:47 51°16.029 2°53.319 326.9 13.3 331 13.4
2010-10-15 06:53:52 51°16.046 2°53.304 327 13.2 331 13.2
2010-10-15 06:53:57 51°16.061 2°53.29 327 13.1 331 12.9
2010-10-15 06:54:02 51°16.077 2°53.276 326.9 13.1 331 13.3
2010-10-15 06:54:07 51°16.094 2°53.262 326.8 13.3 331 13
2010-10-15 06:54:12 51°16.109 2°53.248 326.7 13.2 330 13.4
2010-10-15 06:54:17 51°16.125 2°53.233 326.5 13.2 331 13.4
2010-10-15 06:54:22 51°16.141 2°53.219 326.6 13.2 330 13.1
2010-10-15 06:54:26 51°16.154 2°53.207 326.4 13.2 330 13.2
2010-10-15 06:54:32 51°16.173 2°53.189 326.4 13.2 330 13.3
2010-10-15 06:54:37 51°16.189 2°53.175 326.1 13.3 330 13.4
2010-10-15 06:54:42 51°16.205 2°53.161 326.5 13.3 331 13.2
2010-10-15 06:54:47 51°16.221 2°53.146 326.5 13.4 330 13.7
2010-10-15 06:54:52 51°16.237 2°53.131 326.6 13.3 331 13.4
2010-10-15 06:54:57 51°16.254 2°53.117 326.7 13.3 331 13.2
2010-10-15 06:55:02 51°16.27 2°53.103 326.7 13.4 331 13.5
2010-10-15 06:55:07 51°16.285 2°53.088 326.5 13.2 330 13.7
2010-10-15 06:55:12 51°16.301 2°53.073 326.2 13.2 330 13.4
2010-10-15 06:55:17 51°16.317 2°53.058 326.1 13.2 330 13.4
2010-10-15 06:55:22 51°16.334 2°53.044 326.2 13.4 330 13.2
2010-10-15 06:55:27 51°16.35 2°53.029 326 13.5 331 13.3
2010-10-15 06:55:32 51°16.366 2°53.014 325.7 13.3 330 13.3
2010-10-15 06:55:37 51°16.382 2°53 326 13.2 330 13.2
2010-10-15 06:55:42 51°16.398 2°52.985 326 13.3 330 13.3
2010-10-15 06:55:47 51°16.415 2°52.971 326 13.4 331 13.4
2010-10-15 06:55:52 51°16.431 2°52.957 326 13.4 330 13.4
2010-10-15 06:55:57 51°16.447 2°52.942 325.9 13.4 331 13.3
2010-10-15 06:56:02 51°16.463 2°52.928 326 13.2 331 13
2010-10-15 06:56:07 51°16.478 2°52.913 325.9 13.1 330 13.1
2010-10-15 06:56:12 51°16.494 2°52.898 325.5 13.3 330 13.5
2010-10-15 06:56:17 51°16.51 2°52.884 325.5 13.2 331 12.9
2010-10-15 06:56:22 51°16.526 2°52.87 325.8 13.2 331 13.4
2010-10-15 06:56:27 51°16.542 2°52.856 326.4 13.3 332 13.1
2010-10-15 06:56:32 51°16.559 2°52.843 327.8 13.3 334 13.2
2010-10-15 06:56:37 51°16.575 2°52.829 328.3 13.3 333 13
2010-10-15 06:56:42 51°16.592 2°52.817 329.1 13.3 335 13.2
2010-10-15 06:56:46 51°16.605 2°52.806 329.8 13.3 334 12.6
2010-10-15 06:56:52 51°16.624 2°52.792 330.3 13.1 335 12.6
2010-10-15 06:56:57 51°16.641 2°52.779 330.6 13.2 334 12.8
2010-10-15 06:57:02 51°16.658 2°52.767 330.6 13.2 335 12.9
2010-10-15 06:57:07 51°16.675 2°52.755 331.1 13.3 336 12.5
2010-10-15 06:57:12 51°16.691 2°52.743 331.2 13.2 335 12.3
2010-10-15 06:57:17 51°16.707 2°52.731 331.1 13.1 335 12.5
2010-10-15 06:57:22 51°16.724 2°52.719 331.1 13.2 335 12
2010-10-15 06:57:27 51°16.741 2°52.707 331.1 13.3 336 11.6
2010-10-15 06:57:32 51°16.758 2°52.695 331.2 13.1 336 11.5
2010-10-15 06:57:37 51°16.775 2°52.683 331.4 13.2 336 11.7
2010-10-15 06:57:42 51°16.792 2°52.671 331.3 13.2 336 11.3
2010-10-15 06:57:47 51°16.808 2°52.658 331.1 13.2 335 11.8
2010-10-15 06:57:52 51°16.825 2°52.646 331 13.2 335 11.3
2010-10-15 06:57:57 51°16.841 2°52.634 330.8 13 335 10.6
2010-10-15 06:58:02 51°16.857 2°52.622 330.5 13.1 335 11.6
2010-10-15 06:58:07 51°16.874 2°52.609 330.6 13.2 335 11.4
2010-10-15 06:58:12 51°16.891 2°52.597 330.7 13.3 335 11.6
2010-10-15 06:58:17 51°16.908 2°52.584 331 13.2 335 11.6
2010-10-15 06:58:22 51°16.924 2°52.572 330.9 13.2 335 11.2
2010-10-15 06:58:27 51°16.941 2°52.56 330.8 13.3 336 11.3
2010-10-15 06:58:32 51°16.958 2°52.548 330.5 13.4 335 11.6
2010-10-15 06:58:37 51°16.974 2°52.535 330.5 13.3 334 11.5
2010-10-15 06:58:42 51°16.991 2°52.522 330.4 13.3 334 11.4
2010-10-15 06:58:46 51°17.004 2°52.513 330.7 13.3 335 11.1
2010-10-15 06:58:52 51°17.024 2°52.497 330.1 13.3 335 11.2
2010-10-15 06:58:57 51°17.041 2°52.485 330.4 13.3 334 11
2010-10-15 06:59:02 51°17.058 2°52.472 330.5 13.4 335 11.3
2010-10-15 06:59:06 51°17.071 2°52.462 330.5 13.5 335 11.5
2010-10-15 06:59:12 51°17.092 2°52.447 330.5 13.4 335 11.2
2010-10-15 06:59:17 51°17.108 2°52.434 330.4 13.3 335 11.1
2010-10-15 06:59:22 51°17.125 2°52.422 330.6 13.3 335 11.1
2010-10-15 06:59:27 51°17.142 2°52.41 330.9 13.3 335 11.7
2010-10-15 06:59:32 51°17.159 2°52.397 330.9 13.4 335 11.9
2010-10-15 06:59:37 51°17.176 2°52.385 330.9 13.3 335 11.4
2010-10-15 06:59:42 51°17.192 2°52.372 330.4 13.3 335 11.9
2010-10-15 06:59:47 51°17.209 2°52.36 330.5 13.3 335 11.6
2010-10-15 06:59:52 51°17.226 2°52.347 330.7 13.4 335 11.9
2010-10-15 06:59:57 51°17.242 2°52.334 330.6 13.3 334 11.7
2010-10-15 07:00:02 51°17.259 2°52.322 330.6 13.4 335 12.1
2010-10-15 07:00:07 51°17.277 2°52.31 330.6 13.5 335 11.8
2010-10-15 07:00:12 51°17.293 2°52.297 330.7 13.5 335 12
2010-10-15 07:00:17 51°17.31 2°52.284 330.8 13.3 334 11.8
2010-10-15 07:00:22 51°17.327 2°52.271 330.5 13.3 334 12.1
2010-10-15 07:00:27 51°17.344 2°52.258 330.5 13.5 334 12.5
2010-10-15 07:00:32 51°17.36 2°52.245 330.4 13.4 334 12.3
2010-10-15 07:00:37 51°17.377 2°52.232 330.2 13.5 334 12.9
2010-10-15 07:00:42 51°17.394 2°52.219 330.3 13.4 334 12.7
2010-10-15 07:00:47 51°17.411 2°52.206 330.5 13.5 334 13
2010-10-15 07:00:52 51°17.428 2°52.193 330.5 13.5 334 13
2010-10-15 07:00:57 51°17.445 2°52.18 330.5 13.5 334 12.6
2010-10-15 07:01:02 51°17.461 2°52.167 330.4 13.5 335 13.1
2010-10-15 07:01:06 51°17.475 2°52.157 330.6 13.5 334 12.7
2010-10-15 07:01:12 51°17.495 2°52.142 330.7 13.4 335 12.5
2010-10-15 07:01:17 51°17.512 2°52.128 330.4 13.4 334 12.6
2010-10-15 07:01:22 51°17.529 2°52.116 330.4 13.4 335 12.7
2010-10-15 07:01:27 51°17.545 2°52.103 330.5 13.4 334 13
2010-10-15 07:01:32 51°17.562 2°52.09 330.3 13.4 334 13
2010-10-15 07:01:37 51°17.579 2°52.077 330.3 13.4 334 12.8
2010-10-15 07:01:42 51°17.595 2°52.064 330.3 13.4 334 13.1
2010-10-15 07:01:47 51°17.612 2°52.051 330.7 13.3 334 12.8
2010-10-15 07:01:52 51°17.629 2°52.038 330 13.6 334 12.1
2010-10-15 07:01:57 51°17.646 2°52.026 329.8 13.4 335 11.9
2010-10-15 07:02:02 51°17.662 2°52.013 330 13.3 334 12.3
2010-10-15 07:02:07 51°17.679 2°51.999 329.8 13.4 334 11.9
2010-10-15 07:02:12 51°17.696 2°51.987 330.3 13.3 334 11.7
2010-10-15 07:02:17 51°17.713 2°51.974 330.3 13.4 335 11.9
2010-10-15 07:02:22 51°17.729 2°51.961 330.9 13.3 335 11.7
2010-10-15 07:02:27 51°17.746 2°51.948 330.7 13.4 334 12
2010-10-15 07:02:32 51°17.763 2°51.935 330.6 13.4 334 11.8
2010-10-15 07:02:37 51°17.779 2°51.922 330.5 13.4 334 12.1
2010-10-15 07:02:42 51°17.796 2°51.909 330.5 13.3 333 11.5
2010-10-15 07:02:47 51°17.812 2°51.897 330.2 13.2 334 11.6
2010-10-15 07:02:52 51°17.829 2°51.884 330.3 13.3 334 11.6
2010-10-15 07:02:57 51°17.846 2°51.871 330.6 13.2 334 11.2
2010-10-15 07:03:02 51°17.862 2°51.858 330.3 13.2 334 11.4
2010-10-15 07:03:06 51°17.875 2°51.848 330.2 13.3 334 11.8
2010-10-15 07:03:12 51°17.895 2°51.832 330.3 13.3 335 11.7
2010-10-15 07:03:17 51°17.912 2°51.82 330.7 13.2 334 11.5
2010-10-15 07:03:22 51°17.929 2°51.807 330.2 13.3 333 11.6
2010-10-15 07:03:27 51°17.945 2°51.794 330.2 13.4 335 11.9
2010-10-15 07:03:32 51°17.962 2°51.781 330.3 13.3 334 12
2010-10-15 07:03:37 51°17.979 2°51.768 330.4 13.3 335 12
2010-10-15 07:03:42 51°17.995 2°51.756 330.7 13.3 334 11.9
2010-10-15 07:03:47 51°18.012 2°51.743 330.3 13.4 334 12.3
2010-10-15 07:03:52 51°18.029 2°51.729 330.4 13.4 334 12.2
2010-10-15 07:03:57 51°18.045 2°51.717 330.3 13.4 334 12
2010-10-15 07:04:02 51°18.062 2°51.704 330.2 13.4 334 12.6
2010-10-15 07:04:07 51°18.079 2°51.69 330.3 13.4 334 12.3
2010-10-15 07:04:12 51°18.095 2°51.677 330.3 13.3 334 12.2
2010-10-15 07:04:17 51°18.112 2°51.664 330.2 13.4 334 12.5
2010-10-15 07:04:22 51°18.128 2°51.651 330.3 13.3 334 12.6
2010-10-15 07:04:27 51°18.145 2°51.638 330.7 13.4 333 13
2010-10-15 07:04:32 51°18.161 2°51.626 330.7 13.3 334 12.7
2010-10-15 07:04:37 51°18.177 2°51.612 330 13.3 333 13.2
2010-10-15 07:04:42 51°18.194 2°51.599 330 13.4 334 12.9
2010-10-15 07:04:47 51°18.211 2°51.586 330.3 13.4 334 12.9
2010-10-15 07:04:52 51°18.227 2°51.573 330.4 13.3 334 12.8
2010-10-15 07:04:57 51°18.244 2°51.56 330.3 13.4 333 13.7
2010-10-15 07:05:02 51°18.26 2°51.547 330.1 13.2 333 13.2
2010-10-15 07:05:07 51°18.276 2°51.534 330.2 13.2 334 13.4
2010-10-15 07:05:12 51°18.293 2°51.52 330.1 13.3 334 13.5
2010-10-15 07:05:17 51°18.31 2°51.508 330.5 13.4 335 13.5
2010-10-15 07:05:22 51°18.327 2°51.495 330.7 13.4 334 14
2010-10-15 07:05:26 51°18.341 2°51.485 330.8 13.4 335 13.9
2010-10-15 07:05:32 51°18.361 2°51.469 330.6 13.5 334 13.9
2010-10-15 07:05:37 51°18.378 2°51.456 330.3 13.5 335 14.2
2010-10-15 07:05:42 51°18.394 2°51.443 330.5 13.4 334 14.1
2010-10-15 07:05:47 51°18.411 2°51.43 330.3 13.4 334 14.1
2010-10-15 07:05:52 51°18.427 2°51.417 330 13.3 333 14.1
2010-10-15 07:05:57 51°18.444 2°51.404 329.9 13.4 334 14.6
2010-10-15 07:06:02 51°18.46 2°51.39 330 13.3 333 14.8
2010-10-15 07:06:07 51°18.477 2°51.377 329.7 13.3 333 14.5
2010-10-15 07:06:12 51°18.493 2°51.364 329.9 13.2 334 14.9
2010-10-15 07:06:17 51°18.51 2°51.351 330 13.2 334 15.2
2010-10-15 07:06:22 51°18.526 2°51.338 330.3 13.3 334 14.8
2010-10-15 07:06:27 51°18.543 2°51.325 330.1 13.4 334 14.7
2010-10-15 07:06:32 51°18.56 2°51.313 330.3 13.3 335 14.9
2010-10-15 07:06:37 51°18.577 2°51.3 330.4 13.2 334 14.8
2010-10-15 07:06:42 51°18.593 2°51.287 330.3 13.3 334 15.5
2010-10-15 07:06:47 51°18.61 2°51.273 330.3 13.3 334 15.1
2010-10-15 07:06:52 51°18.627 2°51.261 330.3 13.4 334 15.4
2010-10-15 07:06:57 51°18.644 2°51.248 330.4 13.5 334 15.8
2010-10-15 07:07:02 51°18.66 2°51.235 330.4 13.4 334 15.7
2010-10-15 07:07:07 51°18.677 2°51.222 330.4 13.5 334 15.9
2010-10-15 07:07:12 51°18.694 2°51.209 330.3 13.6 334 15.8
2010-10-15 07:07:17 51°18.711 2°51.196 330.3 13.4 334 15.5
2010-10-15 07:07:22 51°18.727 2°51.183 330.2 13.4 334 15.3
2010-10-15 07:07:27 51°18.744 2°51.17 330.3 13.4 334 15.9
2010-10-15 07:07:32 51°18.76 2°51.157 330.3 13.4 334 16
2010-10-15 07:07:37 51°18.777 2°51.144 330.6 13.5 334 16.3
2010-10-15 07:07:42 51°18.794 2°51.131 330.4 13.4 334 15.9
2010-10-15 07:07:47 51°18.81 2°51.118 330.3 13.3 334 16.2
2010-10-15 07:07:52 51°18.827 2°51.105 330.3 13.5 333 16.4
2010-10-15 07:07:57 51°18.844 2°51.092 330.3 13.4 334 16.1
2010-10-15 07:08:02 51°18.86 2°51.079 330.6 13.4 334 16.1
2010-10-15 07:08:07 51°18.877 2°51.066 330.3 13.4 333 16.7
2010-10-15 07:08:12 51°18.893 2°51.052 330.3 13.2 334 16
2010-10-15 07:08:17 51°18.91 2°51.039 330.3 13.4 333 16.3
2010-10-15 07:08:22 51°18.927 2°51.026 330.3 13.5 333 16.4
2010-10-15 07:08:27 51°18.943 2°51.013 330.3 13.4 333 16.2
2010-10-15 07:08:32 51°18.959 2°50.999 330 13.3 333 15.9
2010-10-15 07:08:37 51°18.976 2°50.986 329.8 13.3 333 16.1
2010-10-15 07:08:42 51°18.992 2°50.973 330.2 13.2 333 16.4
2010-10-15 07:08:47 51°19.009 2°50.96 330.4 13.2 334 15.8
2010-10-15 07:08:52 51°19.025 2°50.947 330.6 13.2 334 16.4
2010-10-15 07:08:57 51°19.042 2°50.934 330.4 13.3 333 16.4
2010-10-15 07:09:02 51°19.059 2°50.92 330.4 13.3 334 16.3
2010-10-15 07:09:07 51°19.075 2°50.907 330.3 13.4 334 16.2
2010-10-15 07:09:12 51°19.092 2°50.894 330.7 13.4 333 16.1
2010-10-15 07:09:17 51°19.108 2°50.881 330.4 13.4 335 16.4
2010-10-15 07:09:22 51°19.125 2°50.868 330.9 13.3 333 16
2010-10-15 07:09:27 51°19.142 2°50.855 330.6 13.2 334 16.1
2010-10-15 07:09:32 51°19.159 2°50.842 330.7 13.6 334 16.6
2010-10-15 07:09:37 51°19.175 2°50.828 330.6 13.5 333 16.4
2010-10-15 07:09:42 51°19.192 2°50.815 330.5 13.5 334 16.5
2010-10-15 07:09:47 51°19.209 2°50.802 330.7 13.5 333 16
2010-10-15 07:09:52 51°19.226 2°50.789 330.7 13.4 333 15.8
2010-10-15 07:09:57 51°19.242 2°50.776 330.2 13.4 333 16.1
2010-10-15 07:10:02 51°19.259 2°50.763 330 13.4 334 15.5
2010-10-15 07:10:07 51°19.276 2°50.75 330.2 13.4 334 15.7
2010-10-15 07:10:12 51°19.292 2°50.736 330.3 13.2 333 15.4
2010-10-15 07:10:17 51°19.309 2°50.724 330.3 13.2 334 14.8
2010-10-15 07:10:22 51°19.325 2°50.71 329.9 13.3 333 15.6
2010-10-15 07:10:27 51°19.342 2°50.697 330.1 13.3 334 14.9
2010-10-15 07:10:32 51°19.358 2°50.684 329.6 13.3 332 15.1
2010-10-15 07:10:37 51°19.374 2°50.67 329.6 13.3 334 14.6
2010-10-15 07:10:42 51°19.391 2°50.657 329.6 13.3 332 14
2010-10-15 07:10:47 51°19.407 2°50.644 329.6 13.3 334 14.2
2010-10-15 07:10:52 51°19.424 2°50.631 330.2 13.3 333 13.8
2010-10-15 07:10:57 51°19.44 2°50.618 330.5 13.3 334 13.9
2010-10-15 07:11:02 51°19.457 2°50.604 330.5 13.3 333 13.6
2010-10-15 07:11:07 51°19.473 2°50.591 330.3 13.3 334 13.6
2010-10-15 07:11:12 51°19.49 2°50.578 330.8 13.3 333 13.4
2010-10-15 07:11:17 51°19.506 2°50.565 330.3 13.3 334 13.4
2010-10-15 07:11:22 51°19.523 2°50.552 330.8 13.4 333 13.4
2010-10-15 07:11:27 51°19.539 2°50.539 330.5 13.2 333 13.5
2010-10-15 07:11:32 51°19.556 2°50.525 330.5 13.2 333 13
2010-10-15 07:11:37 51°19.572 2°50.512 330.5 13.3 333 12.8
2010-10-15 07:11:42 51°19.588 2°50.499 330.4 13.3 333 12.8
2010-10-15 07:11:47 51°19.604 2°50.485 330.6 13.3 332 13
2010-10-15 07:11:52 51°19.621 2°50.471 329.7 13.2 332 13.1
2010-10-15 07:11:57 51°19.637 2°50.458 329.6 13.3 332 13.5
2010-10-15 07:12:02 51°19.653 2°50.444 330.1 13.3 332 13.8
2010-10-15 07:12:06 51°19.667 2°50.433 330.2 13.4 333 13.8
2010-10-15 07:12:12 51°19.686 2°50.417 330.3 13.2 332 13.6
2010-10-15 07:12:17 51°19.702 2°50.403 330.3 13.2 332 14.5
2010-10-15 07:12:22 51°19.718 2°50.39 330.3 13.2 332 14.4
2010-10-15 07:12:27 51°19.734 2°50.377 330.9 13.1 333 14.4
2010-10-15 07:12:32 51°19.751 2°50.363 330 13.2 332 14.7
2010-10-15 07:12:37 51°19.767 2°50.35 330 13.2 333 14.9
2010-10-15 07:12:42 51°19.783 2°50.337 330.3 13.2 333 15.2
2010-10-15 07:12:46 51°19.796 2°50.326 330.4 13.3 333 15.6
2010-10-15 07:12:52 51°19.815 2°50.31 330.4 13.1 333 15.3
2010-10-15 07:12:57 51°19.832 2°50.297 330.8 13.2 333 15.1
2010-10-15 07:13:02 51°19.848 2°50.283 330.3 13.3 333 14.9
2010-10-15 07:13:07 51°19.865 2°50.271 330.4 13.3 334 15.1
2010-10-15 07:13:12 51°19.881 2°50.256 330.7 13.2 332 14.7
2010-10-15 07:13:17 51°19.898 2°50.244 330.6 13.3 333 15
2010-10-15 07:13:22 51°19.914 2°50.23 330.3 13.2 333 15.2
2010-10-15 07:13:27 51°19.93 2°50.217 330.4 13.2 333 15.5
2010-10-15 07:13:32 51°19.947 2°50.203 330.3 13.3 332 15.7
2010-10-15 07:13:37 51°19.963 2°50.19 330.3 13.3 333 15.9
2010-10-15 07:13:42 51°19.979 2°50.176 330.4 13.2 332 16.1
2010-10-15 07:13:47 51°19.996 2°50.163 330.7 13.3 333 16.6
2010-10-15 07:13:52 51°20.012 2°50.15 330.5 13.3 333 16.2
2010-10-15 07:13:57 51°20.029 2°50.137 330.4 13.2 334 16.4
2010-10-15 07:14:02 51°20.045 2°50.124 330.3 13.2 333 16.8
2010-10-15 07:14:07 51°20.062 2°50.11 330.6 13.4 334 17.1
2010-10-15 07:14:12 51°20.079 2°50.097 330.3 13.4 334 17.6
2010-10-15 07:14:17 51°20.095 2°50.084 330.5 13.3 333 17.7
2010-10-15 07:14:22 51°20.111 2°50.071 330.6 13.1 333 17.8
2010-10-15 07:14:27 51°20.128 2°50.058 330.5 13.3 334 18.4
2010-10-15 07:14:32 51°20.145 2°50.045 330.4 13.3 334 18.4
2010-10-15 07:14:37 51°20.161 2°50.032 331 13.2 334 18.4
2010-10-15 07:14:42 51°20.177 2°50.018 330.6 13.2 333 18.5
2010-10-15 07:14:46 51°20.19 2°50.008 330.2 13.2 334 19.1
2010-10-15 07:14:52 51°20.21 2°49.993 330.3 13.1 334 19.2
2010-10-15 07:14:57 51°20.227 2°49.98 330.4 13.1 334 19.3
2010-10-15 07:15:02 51°20.243 2°49.967 330.7 13.2 334 20.1
2010-10-15 07:15:07 51°20.259 2°49.953 330.4 13.2 332 20
2010-10-15 07:15:12 51°20.276 2°49.941 330.4 13 334 19.5
2010-10-15 07:15:17 51°20.292 2°49.929 329.7 12.9 333 20.5
2010-10-15 07:15:22 51°20.307 2°49.916 329.7 12.8 334 20.8
2010-10-15 07:15:27 51°20.323 2°49.902 329.8 12.9 333 21.3
2010-10-15 07:15:32 51°20.339 2°49.889 329.9 13.1 334 21.2
2010-10-15 07:15:37 51°20.355 2°49.877 330 13 334 20.7
2010-10-15 07:15:42 51°20.372 2°49.864 330.1 13.1 334 22
2010-10-15 07:15:47 51°20.388 2°49.851 330.3 13.2 334 21.8
2010-10-15 07:15:52 51°20.405 2°49.838 330.4 13.2 334 22.2
2010-10-15 07:15:57 51°20.421 2°49.825 330.3 13.3 334 22.6
2010-10-15 07:16:02 51°20.438 2°49.812 330.4 13.3 334 22.5
2010-10-15 07:16:07 51°20.455 2°49.799 330.3 13.3 334 22.9
2010-10-15 07:16:12 51°20.471 2°49.786 330.3 13.1 333 22.6
2010-10-15 07:16:17 51°20.487 2°49.773 330.4 13.2 334 23.2
2010-10-15 07:16:22 51°20.503 2°49.76 330.1 13.3 333 23.5
2010-10-15 07:16:27 51°20.52 2°49.747 330.2 13.3 334 23.4
2010-10-15 07:16:32 51°20.537 2°49.734 330.4 13.4 334 24
2010-10-15 07:16:37 51°20.554 2°49.722 330.8 13.3 334 23.9
2010-10-15 07:16:42 51°20.57 2°49.708 330.2 13.4 333 24.4
2010-10-15 07:16:46 51°20.583 2°49.698 330.3 13.3 334 24.2
2010-10-15 07:16:52 51°20.603 2°49.682 330.4 13.4 333 23.9
2010-10-15 07:16:57 51°20.62 2°49.669 330 13.3 333 24.1
2010-10-15 07:17:02 51°20.636 2°49.656 330.1 13.3 334 23.9
2010-10-15 07:17:07 51°20.652 2°49.643 330.2 13.3 333 24.6
2010-10-15 07:17:12 51°20.669 2°49.629 330 13.2 334 24.2
2010-10-15 07:17:17 51°20.685 2°49.617 330.4 13.1 334 23.7
2010-10-15 07:17:22 51°20.701 2°49.603 330.3 13.2 333 24.5
2010-10-15 07:17:27 51°20.718 2°49.59 330.1 13.2 333 24.1
2010-10-15 07:17:32 51°20.734 2°49.577 329.8 13.2 333 24.5
2010-10-15 07:17:37 51°20.751 2°49.564 330 13.3 333 24.6
2010-10-15 07:17:42 51°20.768 2°49.551 330.4 13.3 334 24.8
2010-10-15 07:17:47 51°20.784 2°49.538 330.1 13.2 334 25
2010-10-15 07:17:52 51°20.8 2°49.524 330.3 13.2 334 24.7
2010-10-15 07:17:57 51°20.816 2°49.511 330 13.2 333 24.3
2010-10-15 07:18:02 51°20.833 2°49.498 329.8 13.2 334 24.1
2010-10-15 07:18:07 51°20.849 2°49.484 329.8 13.2 333 24.4
2010-10-15 07:18:12 51°20.866 2°49.47 330 13.5 333 24.2
2010-10-15 07:18:17 51°20.883 2°49.457 330.2 13.5 333 24.4
2010-10-15 07:18:22 51°20.899 2°49.443 329.9 13.4 332 24.1
2010-10-15 07:18:27 51°20.916 2°49.431 329.9 13.4 334 24.2
2010-10-15 07:18:32 51°20.933 2°49.418 330.3 13.5 334 24.3
2010-10-15 07:18:37 51°20.949 2°49.405 330.7 13.4 336 23.8
2010-10-15 07:18:42 51°20.967 2°49.395 333.3 13.5 339 24.1
2010-10-15 07:18:47 51°20.984 2°49.383 334.5 13.5 338 23.8
2010-10-15 07:18:52 51°21.002 2°49.374 336.2 13.7 341 24.1
2010-10-15 07:18:57 51°21.019 2°49.364 337.2 13.6 341 24
2010-10-15 07:19:02 51°21.037 2°49.355 338.5 13.6 343 24
2010-10-15 07:19:07 51°21.055 2°49.345 339.2 13.5 341 23.5
2010-10-15 07:19:12 51°21.073 2°49.338 340.2 13.6 344 23.6
2010-10-15 07:19:17 51°21.09 2°49.329 340.4 13.6 343 23.6
2010-10-15 07:19:22 51°21.109 2°49.321 341.2 13.7 345 23.4
2010-10-15 07:19:26 51°21.123 2°49.314 341.3 13.6 343 23.6
2010-10-15 07:19:32 51°21.145 2°49.304 341.7 13.7 345 23.5
2010-10-15 07:19:37 51°21.163 2°49.296 341.9 13.7 342 23.4
2010-10-15 07:19:42 51°21.182 2°49.287 341.4 13.7 344 23.5
2010-10-15 07:19:47 51°21.2 2°49.279 341.7 13.7 344 23.7
2010-10-15 07:19:52 51°21.218 2°49.271 341.6 13.7 345 23.4
2010-10-15 07:19:57 51°21.237 2°49.263 341.9 13.7 344 23.2
2010-10-15 07:20:02 51°21.255 2°49.256 341.9 13.6 345 22.8
2010-10-15 07:20:07 51°21.273 2°49.247 341.9 13.6 344 22.7
2010-10-15 07:20:12 51°21.291 2°49.239 341.5 13.5 344 23.1
2010-10-15 07:20:17 51°21.309 2°49.23 341.2 13.6 344 23.2
2010-10-15 07:20:22 51°21.327 2°49.222 341.2 13.6 343 23.3
2010-10-15 07:20:27 51°21.345 2°49.213 341.2 13.5 343 23.1
2010-10-15 07:20:32 51°21.363 2°49.203 339.3 13.5 340 22.8
2010-10-15 07:20:37 51°21.38 2°49.191 336.4 13.4 339 22.8
2010-10-15 07:20:42 51°21.398 2°49.18 335.3 13.3 338 22.5
2010-10-15 07:20:47 51°21.414 2°49.167 333.6 13.5 335 23
2010-10-15 07:20:52 51°21.432 2°49.154 331.8 13.4 332 22.6
2010-10-15 07:20:57 51°21.447 2°49.139 328.1 13.3 328 23.1
2010-10-15 07:21:02 51°21.463 2°49.124 326.3 13.5 330 23
2010-10-15 07:21:07 51°21.479 2°49.107 324.5 13.5 326 23.1
2010-10-15 07:21:12 51°21.494 2°49.091 323 13.4 326 23.2
2010-10-15 07:21:17 51°21.509 2°49.074 322.3 13.3 324 23.5
2010-10-15 07:21:22 51°21.523 2°49.056 320.9 13.2 323 23.8
2010-10-15 07:21:26 51°21.535 2°49.042 320.4 13.3 322 23.6
2010-10-15 07:21:32 51°21.552 2°49.021 319.8 13.1 323 23.2
2010-10-15 07:21:37 51°21.567 2°49.004 319.1 13.2 322 23.3
2010-10-15 07:21:42 51°21.581 2°48.986 318.8 13.1 322 24.1
2010-10-15 07:21:47 51°21.595 2°48.968 318.3 13 322 24